Time;durP1;ratioP1;P1;durP2;ratioP2;P2;SDS_P1;SDS_P2;PMS_P1;PMS_P2;Temp;Humidity;BMP_temperature;BMP_pressure;BME280_temperature;BME280_humidity;BME280_pressure;Samples;Min_cycle;Max_cycle;Signal;HPM_P1;HPM_P2
2023/11/28 00:02:03;;;;;;;12.55;3.97;;;-2.90;100.00;;;;;;5020728;28;20122;-69
2023/11/28 00:04:31;;;;;;;17.92;4.50;;;-3.00;100.00;;;;;;5003557;28;20056;-68
2023/11/28 00:06:58;;;;;;;16.08;4.70;;;-3.00;100.00;;;;;;5021042;28;20049;-68
2023/11/28 00:09:25;;;;;;;13.48;3.95;;;-3.10;100.00;;;;;;5012086;28;20041;-68
2023/11/28 00:11:53;;;;;;;16.35;4.45;;;-3.00;100.00;;;;;;5020629;28;20049;-69
2023/11/28 00:14:20;;;;;;;21.10;4.90;;;-3.10;100.00;;;;;;5021195;28;20971;-68
2023/11/28 00:16:46;;;;;;;20.48;4.68;;;-3.10;100.00;;;;;;5020977;28;20163;-68
2023/11/28 00:19:13;;;;;;;18.02;5.00;;;-3.10;100.00;;;;;;5022037;28;20064;-69
2023/11/28 00:21:40;;;;;;;17.85;4.82;;;-3.20;100.00;;;;;;5018956;28;20616;-69
2023/11/28 00:24:10;;;;;;;15.02;4.78;;;-3.20;100.00;;;;;;5020379;28;20107;-69
2023/11/28 00:26:37;;;;;;;13.65;3.40;;;-3.20;100.00;;;;;;5020802;28;20107;-68
2023/11/28 00:29:03;;;;;;;20.35;6.18;;;-3.20;100.00;;;;;;5021312;28;20573;-69
2023/11/28 00:31:30;;;;;;;22.20;5.68;;;-3.20;100.00;;;;;;5018507;28;20060;-68
2023/11/28 00:33:57;;;;;;;17.67;4.85;;;-3.20;100.00;;;;;;5019430;28;21417;-69
2023/11/28 00:36:24;;;;;;;22.75;5.63;;;-3.20;100.00;;;;;;5020635;28;20061;-69
2023/11/28 00:38:52;;;;;;;18.55;5.07;;;-3.30;100.00;;;;;;5019783;28;20050;-69
2023/11/28 00:41:19;;;;;;;15.48;5.10;;;-3.30;100.00;;;;;;5019614;28;20056;-68
2023/11/28 00:43:46;;;;;;;18.50;5.88;;;-3.30;100.00;;;;;;5019691;28;20077;-69
2023/11/28 00:46:15;;;;;;;18.92;5.10;;;-3.30;100.00;;;;;;5019017;28;20052;-69
2023/11/28 00:48:43;;;;;;;15.60;4.72;;;-3.30;100.00;;;;;;5005218;28;20123;-68
2023/11/28 00:51:09;;;;;;;19.77;5.30;;;-3.40;100.00;;;;;;5021290;28;20081;-69
2023/11/28 00:53:36;;;;;;;16.25;5.25;;;-3.40;100.00;;;;;;5022594;28;20238;-69
2023/11/28 00:56:04;;;;;;;16.30;5.55;;;-3.40;100.00;;;;;;5020393;28;20236;-69
2023/11/28 00:58:31;;;;;;;10.00;4.25;;;-3.50;100.00;;;;;;5021503;28;20580;-69
2023/11/28 01:00:58;;;;;;;12.52;4.95;;;-3.50;100.00;;;;;;5020934;28;20051;-69
2023/11/28 01:03:24;;;;;;;13.60;5.47;;;-3.50;100.00;;;;;;5019225;28;20159;-68
2023/11/28 01:05:51;;;;;;;18.08;5.53;;;-3.60;100.00;;;;;;5020672;28;20076;-68
2023/11/28 01:08:18;;;;;;;16.50;4.70;;;-3.60;100.00;;;;;;5020981;28;20166;-68
2023/11/28 01:10:45;;;;;;;13.18;3.92;;;-3.60;100.00;;;;;;5020715;28;20182;-68
2023/11/28 01:13:12;;;;;;;18.33;5.40;;;-3.60;100.00;;;;;;5022388;28;20156;-69
2023/11/28 01:15:39;;;;;;;15.27;4.80;;;-3.70;100.00;;;;;;5021537;28;20103;-69
2023/11/28 01:18:06;;;;;;;12.32;3.58;;;-3.70;100.00;;;;;;5004704;28;20502;-69
2023/11/28 01:20:34;;;;;;;12.95;3.97;;;-3.70;100.00;;;;;;5004632;28;20057;-69
2023/11/28 01:23:00;;;;;;;10.57;4.13;;;-3.70;100.00;;;;;;5019946;28;20049;-69
2023/11/28 01:25:27;;;;;;;14.25;5.10;;;-3.70;100.00;;;;;;5001888;28;20064;-69
2023/11/28 01:27:54;;;;;;;18.85;4.90;;;-3.70;100.00;;;;;;5018783;28;20124;-69
2023/11/28 01:30:21;;;;;;;12.73;3.92;;;-3.70;100.00;;;;;;5020951;28;20105;-68
2023/11/28 01:32:48;;;;;;;14.38;4.65;;;-3.70;100.00;;;;;;5023529;28;20126;-69
2023/11/28 01:35:15;;;;;;;18.88;4.53;;;-3.70;100.00;;;;;;5024838;28;20057;-68
2023/11/28 01:37:42;;;;;;;11.73;4.97;;;-3.80;100.00;;;;;;5023925;28;20706;-69
2023/11/28 01:40:10;;;;;;;12.00;4.72;;;-3.80;100.00;;;;;;5024563;28;20053;-68
2023/11/28 01:42:37;;;;;;;13.77;4.53;;;-3.80;100.00;;;;;;5023526;28;20115;-68
2023/11/28 01:45:05;;;;;;;18.23;4.25;;;-3.80;100.00;;;;;;5007986;28;20107;-68
2023/11/28 01:47:33;;;;;;;14.77;4.18;;;-3.80;100.00;;;;;;5024994;28;20046;-69
2023/11/28 01:50:02;;;;;;;16.63;4.65;;;-3.80;100.00;;;;;;5024927;28;20052;-68
2023/11/28 01:52:32;;;;;;;18.27;4.50;;;-3.80;100.00;;;;;;5025413;28;20080;-68
2023/11/28 01:55:01;;;;;;;10.55;4.05;;;-3.80;100.00;;;;;;5025930;28;20065;-68
2023/11/28 01:57:28;;;;;;;14.77;4.18;;;-3.80;100.00;;;;;;5023972;28;20215;-68
2023/11/28 01:59:57;;;;;;;25.23;5.30;;;-3.80;100.00;;;;;;5008175;28;20053;-68
2023/11/28 02:02:25;;;;;;;16.00;4.63;;;-3.80;100.00;;;;;;5020758;28;20130;-68
2023/11/28 02:04:52;;;;;;;13.90;3.97;;;-3.80;100.00;;;;;;5026795;28;20041;-69
2023/11/28 02:07:19;;;;;;;12.90;4.80;;;-3.90;100.00;;;;;;5007702;28;20056;-68
2023/11/28 02:09:46;;;;;;;12.63;3.67;;;-3.90;100.00;;;;;;5007675;28;20053;-69
2023/11/28 02:12:13;;;;;;;22.08;4.68;;;-3.90;100.00;;;;;;5023386;28;20483;-69
2023/11/28 02:14:44;;;;;;;11.68;3.40;;;-3.90;100.00;;;;;;5023700;28;20752;-69
2023/11/28 02:17:11;;;;;;;9.15;3.65;;;-3.90;100.00;;;;;;5025319;28;20045;-69
2023/11/28 02:19:38;;;;;;;17.45;5.05;;;-3.90;100.00;;;;;;5024294;28;20049;-69
2023/11/28 02:22:07;;;;;;;10.85;3.95;;;-3.90;100.00;;;;;;5006626;28;20049;-68
2023/11/28 02:24:39;;;;;;;9.13;3.58;;;-3.90;100.00;;;;;;5025618;28;20045;-69
2023/11/28 02:27:06;;;;;;;12.43;3.20;;;-3.90;100.00;;;;;;5024353;28;20116;-68
2023/11/28 02:29:33;;;;;;;11.48;4.15;;;-3.90;100.00;;;;;;5023936;28;20064;-68
2023/11/28 02:32:00;;;;;;;19.75;4.50;;;-3.90;100.00;;;;;;5024697;28;20057;-68
2023/11/28 02:34:27;;;;;;;20.13;4.93;;;-3.90;100.00;;;;;;5024700;28;20054;-68
2023/11/28 02:36:54;;;;;;;8.52;3.33;;;-3.90;100.00;;;;;;5024409;28;20802;-68
2023/11/28 02:39:21;;;;;;;11.07;4.72;;;-3.90;100.00;;;;;;5022370;28;20132;-68
2023/11/28 02:41:47;;;;;;;10.65;3.90;;;-4.00;100.00;;;;;;5024611;28;20720;-69
2023/11/28 02:44:14;;;;;;;12.88;3.75;;;-4.00;100.00;;;;;;5024033;28;20049;-68
2023/11/28 02:46:42;;;;;;;14.52;4.28;;;-3.90;100.00;;;;;;5024811;28;20131;-69
2023/11/28 02:49:09;;;;;;;7.85;3.00;;;-3.90;100.00;;;;;;5006296;28;20065;-69
2023/11/28 02:51:36;;;;;;;12.43;3.50;;;-3.90;100.00;;;;;;5023456;28;20140;-68
2023/11/28 02:54:03;;;;;;;9.68;3.65;;;-3.90;100.00;;;;;;5021598;28;20045;-69
2023/11/28 02:56:30;;;;;;;12.82;4.32;;;-3.90;100.00;;;;;;5023473;28;20931;-69
2023/11/28 02:58:56;;;;;;;12.35;3.58;;;-4.00;100.00;;;;;;5021594;28;20727;-69
2023/11/28 03:01:23;;;;;;;14.27;3.85;;;-4.00;100.00;;;;;;5006531;28;20045;-69
2023/11/28 03:03:51;;;;;;;10.48;4.47;;;-4.00;100.00;;;;;;5023227;28;20067;-68
2023/11/28 03:06:18;;;;;;;13.68;3.45;;;-4.00;100.00;;;;;;5024041;28;20236;-68
2023/11/28 03:08:45;;;;;;;10.50;4.13;;;-4.00;100.00;;;;;;5005745;28;20153;-69
2023/11/28 03:11:12;;;;;;;15.45;4.00;;;-4.10;100.00;;;;;;5023302;28;20148;-69
2023/11/28 03:13:38;;;;;;;11.30;3.58;;;-4.10;100.00;;;;;;5020823;28;20135;-69
2023/11/28 03:16:06;;;;;;;13.35;3.42;;;-4.10;100.00;;;;;;5023602;28;20053;-69
2023/11/28 03:18:33;;;;;;;10.75;4.15;;;-4.10;100.00;;;;;;5021888;28;20646;-69
2023/11/28 03:21:00;;;;;;;15.02;3.95;;;-4.00;100.00;;;;;;5012728;28;20122;-69
2023/11/28 03:23:27;;;;;;;13.00;4.20;;;-4.00;100.00;;;;;;5023942;28;20069;-69
2023/11/28 03:25:53;;;;;;;9.00;3.58;;;-4.00;100.00;;;;;;5021728;28;20174;-69
2023/11/28 03:28:20;;;;;;;17.67;3.58;;;-4.00;100.00;;;;;;5022345;28;20102;-69
2023/11/28 03:30:50;;;;;;;7.28;3.60;;;-4.00;100.00;;;;;;5024155;28;20046;-68
2023/11/28 03:33:17;;;;;;;19.70;3.70;;;-4.00;100.00;;;;;;5014606;28;20131;-69
2023/11/28 03:35:44;;;;;;;12.40;2.92;;;-4.00;100.00;;;;;;5023771;28;20135;-68
2023/11/28 03:38:11;;;;;;;19.25;4.05;;;-4.00;100.00;;;;;;5023662;28;20061;-68
2023/11/28 03:40:38;;;;;;;10.88;3.45;;;-4.00;100.00;;;;;;5022293;28;20045;-68
2023/11/28 03:43:05;;;;;;;11.63;3.15;;;-4.00;100.00;;;;;;5024298;28;20122;-69
2023/11/28 03:45:32;;;;;;;12.77;3.17;;;-4.00;100.00;;;;;;5005475;28;20053;-68
2023/11/28 03:47:59;;;;;;;7.75;3.35;;;-4.00;100.00;;;;;;5022371;28;20131;-69
2023/11/28 03:50:26;;;;;;;12.43;3.65;;;-4.00;100.00;;;;;;5021072;28;20065;-69
2023/11/28 03:52:53;;;;;;;11.77;4.05;;;-4.00;100.00;;;;;;5007228;28;20057;-68
2023/11/28 03:55:20;;;;;;;12.10;3.67;;;-4.00;100.00;;;;;;5022585;28;20199;-68
2023/11/28 03:57:46;;;;;;;7.47;2.90;;;-4.00;100.00;;;;;;5023258;28;20112;-69
2023/11/28 04:00:14;;;;;;;9.20;3.33;;;-4.00;100.00;;;;;;5010204;28;20505;-69
2023/11/28 04:02:41;;;;;;;9.85;2.83;;;-4.00;100.00;;;;;;5022895;28;20155;-69
2023/11/28 04:05:09;;;;;;;13.52;3.42;;;-4.00;100.00;;;;;;5022544;28;20049;-68
2023/11/28 04:07:36;;;;;;;13.48;3.38;;;-4.00;100.00;;;;;;5005409;28;20050;-68
2023/11/28 04:10:03;;;;;;;5.47;2.70;;;-4.00;100.00;;;;;;5022042;28;20057;-69
2023/11/28 04:12:30;;;;;;;7.85;3.33;;;-4.00;100.00;;;;;;5021566;28;20079;-69
2023/11/28 04:14:57;;;;;;;9.20;3.50;;;-4.00;100.00;;;;;;5005072;28;20149;-69
2023/11/28 04:17:24;;;;;;;14.98;3.60;;;-4.00;100.00;;;;;;5011884;28;20134;-69
2023/11/28 04:19:51;;;;;;;11.07;3.25;;;-4.00;100.00;;;;;;5021457;28;20421;-69
2023/11/28 04:22:17;;;;;;;17.92;3.97;;;-4.00;100.00;;;;;;5005843;28;20053;-69
2023/11/28 04:24:44;;;;;;;8.32;3.50;;;-4.10;100.00;;;;;;5023037;28;20180;-69
2023/11/28 04:27:11;;;;;;;15.77;4.00;;;-4.10;100.00;;;;;;5022611;28;20046;-69
2023/11/28 04:29:38;;;;;;;8.77;3.25;;;-4.20;100.00;;;;;;5005170;28;20080;-69
2023/11/28 04:32:05;;;;;;;7.65;3.75;;;-4.20;100.00;;;;;;5021953;28;20052;-69
2023/11/28 04:34:32;;;;;;;12.35;4.18;;;-4.30;100.00;;;;;;5022758;28;20059;-69
2023/11/28 04:36:59;;;;;;;9.32;3.50;;;-4.30;100.00;;;;;;5021816;28;20057;-69
2023/11/28 04:39:26;;;;;;;15.15;4.15;;;-4.30;100.00;;;;;;5020281;28;20087;-68
2023/11/28 04:41:53;;;;;;;9.13;3.55;;;-4.40;100.00;;;;;;5022197;28;20119;-69
2023/11/28 04:44:20;;;;;;;11.52;3.55;;;-4.40;100.00;;;;;;5021389;28;20122;-69
2023/11/28 04:46:46;;;;;;;10.13;3.83;;;-4.40;100.00;;;;;;5019940;28;20053;-68
2023/11/28 04:49:14;;;;;;;11.45;4.20;;;-4.50;100.00;;;;;;5004781;28;20060;-69
2023/11/28 04:51:41;;;;;;;5.75;2.72;;;-4.50;100.00;;;;;;5022054;28;20123;-69
2023/11/28 04:54:08;;;;;;;10.10;3.50;;;-4.50;100.00;;;;;;5005069;28;20049;-69
2023/11/28 04:56:35;;;;;;;6.57;2.20;;;-4.50;100.00;;;;;;5022276;28;20576;-69
2023/11/28 04:59:02;;;;;;;9.00;3.20;;;-4.50;100.00;;;;;;5022950;28;20148;-69
2023/11/28 05:01:29;;;;;;;8.35;3.63;;;-4.40;100.00;;;;;;5004838;28;20729;-69
2023/11/28 05:03:56;;;;;;;10.80;3.90;;;-4.40;100.00;;;;;;5021677;28;20057;-68
2023/11/28 05:06:23;;;;;;;11.55;3.30;;;-4.20;100.00;;;;;;5005710;28;20049;-69
2023/11/28 05:08:50;;;;;;;6.20;3.38;;;-4.00;100.00;;;;;;5026939;28;21284;-69
2023/11/28 05:11:17;;;;;;;7.32;3.53;;;-3.80;100.00;;;;;;5025142;28;20334;-69
2023/11/28 05:13:44;;;;;;;31.75;3.42;;;-3.70;100.00;;;;;;5008885;28;20053;-69
2023/11/28 05:16:11;;;;;;;16.50;3.25;;;-3.50;100.00;;;;;;5008607;28;20060;-69
2023/11/28 05:18:39;;;;;;;38.47;3.42;;;-3.40;100.00;;;;;;5010226;28;20107;-68
2023/11/28 05:21:06;;;;;;;8.88;3.65;;;-3.30;100.00;;;;;;5026429;28;20061;-69
2023/11/28 05:23:38;;;;;;;21.60;3.90;;;-3.20;100.00;;;;;;5025372;28;20049;-72
2023/11/28 05:26:06;;;;;;;10.27;3.17;;;-3.10;100.00;;;;;;5010282;28;20053;-73
2023/11/28 05:28:33;;;;;;;24.55;2.58;;;-3.10;100.00;;;;;;5027020;28;20061;-71
2023/11/28 05:31:00;;;;;;;11.20;3.00;;;-2.90;100.00;;;;;;5023937;28;20140;-73
2023/11/28 05:33:27;;;;;;;12.02;2.90;;;-2.90;100.00;;;;;;5003312;28;20045;-71
2023/11/28 05:35:54;;;;;;;7.55;3.10;;;-2.80;100.00;;;;;;5020047;28;20194;-68
2023/11/28 05:38:21;;;;;;;30.08;3.17;;;-2.80;100.00;;;;;;5020034;28;20118;-68
2023/11/28 05:40:48;;;;;;;5.68;2.42;;;-2.70;100.00;;;;;;5019261;28;20095;-68
2023/11/28 05:43:15;;;;;;;10.30;2.65;;;-2.70;100.00;;;;;;5002300;28;20136;-68
2023/11/28 05:45:42;;;;;;;9.77;3.28;;;-2.70;100.00;;;;;;5018539;28;20571;-69
2023/11/28 05:48:09;;;;;;;6.10;2.55;;;-2.60;100.00;;;;;;5018762;28;20057;-68
2023/11/28 05:50:35;;;;;;;7.50;2.55;;;-2.60;100.00;;;;;;5019144;28;20090;-68
2023/11/28 05:53:02;;;;;;;8.25;2.55;;;-2.70;100.00;;;;;;5020532;28;20057;-68
2023/11/28 05:55:30;;;;;;;6.70;2.78;;;-2.60;100.00;;;;;;5019649;28;20122;-69
2023/11/28 05:57:57;;;;;;;7.70;2.92;;;-2.60;100.00;;;;;;5021428;28;20706;-69
2023/11/28 06:00:23;;;;;;;8.20;2.97;;;-2.70;100.00;;;;;;5019960;28;20049;-69
2023/11/28 06:02:50;;;;;;;6.75;2.72;;;-2.70;100.00;;;;;;5030861;28;20077;-69
2023/11/28 06:05:17;;;;;;;3.08;1.67;;;-2.80;100.00;;;;;;5012558;28;20128;-69
2023/11/28 06:07:44;;;;;;;11.43;4.00;;;-2.80;100.00;;;;;;5015893;28;20045;-69
2023/11/28 06:10:13;;;;;;;9.20;2.65;;;-2.80;100.00;;;;;;5018145;28;20056;-69
2023/11/28 06:12:40;;;;;;;6.43;2.90;;;-2.80;100.00;;;;;;5015119;28;20081;-69
2023/11/28 06:15:07;;;;;;;7.53;3.08;;;-2.90;100.00;;;;;;5030407;28;20756;-69
2023/11/28 06:17:34;;;;;;;6.43;2.45;;;-2.90;100.00;;;;;;5014118;28;20719;-69
2023/11/28 06:20:05;;;;;;;6.90;3.10;;;-3.00;100.00;;;;;;5016412;28;20053;-69
2023/11/28 06:22:32;;;;;;;5.55;2.67;;;-3.00;100.00;;;;;;5032403;28;20128;-69
2023/11/28 06:25:00;;;;;;;11.27;4.57;;;-3.00;100.00;;;;;;5031512;28;20831;-69
2023/11/28 06:27:26;;;;;;;9.20;2.70;;;-3.00;100.00;;;;;;5031720;28;20077;-69
2023/11/28 06:29:54;;;;;;;12.15;3.70;;;-3.00;100.00;;;;;;5020234;28;20041;-70
2023/11/28 06:32:21;;;;;;;4.78;2.30;;;-2.90;100.00;;;;;;5035282;28;20056;-68
2023/11/28 06:34:48;;;;;;;5.95;2.53;;;-2.80;100.00;;;;;;5029108;28;20068;-70
2023/11/28 06:37:15;;;;;;;6.78;2.60;;;-2.70;100.00;;;;;;5034074;28;20049;-69
2023/11/28 06:39:44;;;;;;;6.82;3.10;;;-2.60;100.00;;;;;;5020127;28;20072;-70
2023/11/28 06:42:11;;;;;;;5.90;2.15;;;-2.40;100.00;;;;;;5035970;28;20045;-70
2023/11/28 06:44:38;;;;;;;150.90;10.90;;;-2.40;100.00;;;;;;5013318;28;20456;-70
2023/11/28 06:47:06;;;;;;;7.28;2.60;;;-2.20;100.00;;;;;;5033540;28;20146;-69
2023/11/28 06:49:33;;;;;;;17.90;2.63;;;-2.10;100.00;;;;;;5011123;28;20049;-70
2023/11/28 06:52:01;;;;;;;47.60;4.80;;;-2.10;100.00;;;;;;5029312;28;20053;-70
2023/11/28 06:54:29;;;;;;;7.25;3.58;;;-2.00;100.00;;;;;;5016617;28;20155;-70
2023/11/28 06:56:56;;;;;;;9.93;3.78;;;-1.90;100.00;;;;;;5014929;28;20141;-70
2023/11/28 06:59:23;;;;;;;7.13;2.70;;;-1.90;100.00;;;;;;5032573;28;20052;-69
2023/11/28 07:01:49;;;;;;;9.57;3.25;;;-1.80;100.00;;;;;;5014480;28;20053;-70
2023/11/28 07:04:17;;;;;;;6.70;3.17;;;-1.80;100.00;;;;;;5016868;28;20856;-69
2023/11/28 07:06:44;;;;;;;8.98;2.90;;;-1.80;100.00;;;;;;5029398;28;20060;-69
2023/11/28 07:09:10;;;;;;;6.03;2.45;;;-1.80;100.00;;;;;;5033329;28;20053;-69
2023/11/28 07:11:37;;;;;;;12.38;2.67;;;-1.70;100.00;;;;;;5014399;28;20131;-74
2023/11/28 07:14:05;;;;;;;6.43;2.65;;;-1.70;100.00;;;;;;5034343;28;20711;-75
2023/11/28 07:16:33;;;;;;;13.05;3.40;;;-1.70;100.00;;;;;;5028694;28;20107;-75
2023/11/28 07:19:00;;;;;;;5.32;2.33;;;-1.70;100.00;;;;;;5032350;28;20390;-75
2023/11/28 07:21:27;;;;;;;7.78;2.58;;;-1.60;100.00;;;;;;5028574;28;20786;-75
2023/11/28 07:23:54;;;;;;;5.85;2.58;;;-1.50;100.00;;;;;;5014770;28;20054;-75
2023/11/28 07:26:21;;;;;;;5.50;2.33;;;-1.50;100.00;;;;;;5030260;28;21094;-75
2023/11/28 07:28:48;;;;;;;4.25;2.22;;;-1.50;100.00;;;;;;5032425;28;20087;-75
2023/11/28 07:31:16;;;;;;;5.88;1.80;;;-1.50;100.00;;;;;;5031000;28;20072;-75
2023/11/28 07:33:43;;;;;;;5.47;2.25;;;-1.50;100.00;;;;;;5031784;28;20049;-75
2023/11/28 07:36:14;;;;;;;5.20;2.58;;;-1.40;100.00;;;;;;5035376;28;20577;-74
2023/11/28 07:41:59;;;;;;;6.47;2.15;;;-1.30;100.00;;;;;;4938863;28;20158;-70
2023/11/28 07:44:31;;;;;;;6.22;2.20;;;-1.20;100.00;;;;;;4941153;28;20057;-69
2023/11/28 07:47:02;;;;;;;5.38;2.33;;;-1.10;100.00;;;;;;4936727;28;20054;-70
2023/11/28 07:49:29;;;;;;;4.63;2.10;;;-1.10;100.00;;;;;;4938540;28;20065;-69
2023/11/28 07:51:56;;;;;;;4.32;2.08;;;-1.00;100.00;;;;;;4944636;28;20082;-69
2023/11/28 07:54:23;;;;;;;11.57;2.72;;;-1.00;100.00;;;;;;4942809;28;20055;-70
2023/11/28 07:56:49;;;;;;;5.57;2.63;;;-0.90;100.00;;;;;;4934031;28;20126;-68
2023/11/28 07:59:16;;;;;;;14.57;4.05;;;-0.80;100.00;;;;;;4953040;28;20890;-68
2023/11/28 08:01:43;;;;;;;6.05;3.00;;;-0.80;100.00;;;;;;4933665;28;20504;-68
2023/11/28 08:04:10;;;;;;;8.30;2.28;;;-0.70;100.00;;;;;;4933487;28;20074;-68
2023/11/28 08:06:39;;;;;;;9.65;3.80;;;-0.70;100.00;;;;;;4946104;28;20051;-69
2023/11/28 08:09:07;;;;;;;5.40;2.67;;;-0.70;100.00;;;;;;4938030;28;20056;-69
2023/11/28 08:11:34;;;;;;;8.05;3.13;;;-0.60;100.00;;;;;;4936767;28;20405;-68
2023/11/28 08:14:01;;;;;;;9.60;3.22;;;-0.60;100.00;;;;;;4942149;28;20134;-70
2023/11/28 08:16:28;;;;;;;14.50;4.00;;;-0.60;100.00;;;;;;4942663;28;20069;-70
2023/11/28 08:18:55;;;;;;;7.35;3.35;;;-0.50;100.00;;;;;;4955240;28;20143;-70
2023/11/28 08:21:22;;;;;;;9.93;3.35;;;-0.40;100.00;;;;;;4937669;28;20055;-70
2023/11/28 08:23:49;;;;;;;9.15;3.38;;;-0.40;100.00;;;;;;4938390;28;20047;-70
2023/11/28 08:26:16;;;;;;;8.88;3.30;;;-0.40;100.00;;;;;;4938196;28;20078;-70
2023/11/28 08:28:43;;;;;;;10.50;3.72;;;-0.30;100.00;;;;;;4936786;28;20058;-70
2023/11/28 08:31:10;;;;;;;8.75;3.00;;;-0.30;100.00;;;;;;4936419;28;20055;-70
2023/11/28 08:33:37;;;;;;;9.13;3.60;;;-0.40;100.00;;;;;;4942462;28;20055;-71
2023/11/28 08:36:05;;;;;;;6.63;2.95;;;-0.40;100.00;;;;;;4940328;28;20162;-71
2023/11/28 08:38:32;;;;;;;5.45;2.53;;;-0.40;100.00;;;;;;4933246;28;20066;-70
2023/11/28 08:40:59;;;;;;;7.38;3.50;;;-0.30;100.00;;;;;;4943572;28;20051;-70
2023/11/28 08:43:26;;;;;;;7.07;2.33;;;-0.20;100.00;;;;;;4969618;28;20085;-70
2023/11/28 08:45:53;;;;;;;5.18;2.60;;;-0.10;100.00;;;;;;4938991;28;20725;-71
2023/11/28 08:48:20;;;;;;;6.13;2.95;;;-0.10;100.00;;;;;;4930817;28;20056;-71
2023/11/28 08:50:47;;;;;;;6.93;2.53;;;0.00;100.00;;;;;;4934592;28;20174;-71
2023/11/28 08:53:14;;;;;;;7.80;2.90;;;0.00;100.00;;;;;;4935932;28;20059;-72
2023/11/28 08:55:42;;;;;;;10.52;2.53;;;0.00;100.00;;;;;;4961324;28;20079;-71
2023/11/28 08:58:09;;;;;;;6.55;2.85;;;0.00;100.00;;;;;;4965959;28;20054;-72
2023/11/28 09:00:36;;;;;;;15.07;2.65;;;0.10;100.00;;;;;;4968397;28;20528;-71
2023/11/28 09:03:04;;;;;;;8.18;2.10;;;0.00;100.00;;;;;;4938823;28;20047;-71
2023/11/28 09:05:31;;;;;;;4.43;2.15;;;0.00;100.00;;;;;;4932998;28;20055;-71
2023/11/28 09:07:58;;;;;;;10.98;2.38;;;0.00;100.00;;;;;;4951308;28;20061;-71
2023/11/28 09:10:25;;;;;;;6.93;2.13;;;0.00;100.00;;;;;;4936120;28;20130;-71
2023/11/28 09:12:52;;;;;;;8.48;2.53;;;0.00;100.00;;;;;;4962144;28;20059;-71
2023/11/28 09:15:20;;;;;;;6.70;2.10;;;0.00;100.00;;;;;;4936981;28;20051;-70
2023/11/28 09:17:47;;;;;;;8.13;2.25;;;0.00;100.00;;;;;;4939326;28;20169;-70
2023/11/28 09:20:14;;;;;;;7.65;3.08;;;0.00;100.00;;;;;;4936804;28;20822;-70
2023/11/28 09:22:41;;;;;;;5.97;1.98;;;0.00;100.00;;;;;;4933313;28;20102;-70
2023/11/28 09:25:09;;;;;;;4.30;2.05;;;0.00;100.00;;;;;;4968022;28;20047;-71
2023/11/28 09:27:36;;;;;;;9.05;2.28;;;0.00;100.00;;;;;;4963435;28;20067;-70
2023/11/28 09:30:04;;;;;;;4.28;2.03;;;0.00;100.00;;;;;;4937635;28;20110;-70
2023/11/28 09:32:31;;;;;;;5.88;2.38;;;-0.10;100.00;;;;;;4935899;28;20095;-70
2023/11/28 09:34:58;;;;;;;5.07;2.33;;;0.00;100.00;;;;;;4932809;28;20157;-70
2023/11/28 09:37:25;;;;;;;8.32;2.58;;;-0.10;100.00;;;;;;4968985;28;20082;-70
2023/11/28 09:39:53;;;;;;;15.40;2.85;;;-0.10;100.00;;;;;;4937694;28;20044;-70
2023/11/28 09:42:22;;;;;;;10.70;2.60;;;-0.10;100.00;;;;;;4929043;28;20084;-70
2023/11/28 09:44:51;;;;;;;7.28;3.08;;;-0.10;100.00;;;;;;4934392;28;20051;-70
2023/11/28 09:47:22;;;;;;;5.50;2.65;;;0.00;100.00;;;;;;4952368;28;20036;-70
2023/11/28 09:49:54;;;;;;;8.52;2.40;;;0.00;100.00;;;;;;4963012;28;20066;-70
2023/11/28 09:52:21;;;;;;;5.28;2.50;;;0.10;100.00;;;;;;4965916;28;20051;-70
2023/11/28 09:54:52;;;;;;;4.57;2.33;;;0.20;100.00;;;;;;4942488;28;20059;-70
2023/11/28 09:57:21;;;;;;;5.85;2.53;;;0.30;100.00;;;;;;4937450;28;20054;-70
2023/11/28 09:59:49;;;;;;;6.35;2.13;;;0.20;100.00;;;;;;4961304;28;20055;-70
2023/11/28 10:02:17;;;;;;;4.90;2.20;;;0.20;100.00;;;;;;4938235;28;20068;-70
2023/11/28 10:04:45;;;;;;;8.63;2.67;;;0.20;100.00;;;;;;4935161;28;20111;-70
2023/11/28 10:07:14;;;;;;;10.75;3.25;;;0.30;100.00;;;;;;4947017;28;20090;-71
2023/11/28 10:09:47;;;;;;;7.57;2.60;;;0.30;100.00;;;;;;4944601;28;20059;-70
2023/11/28 10:12:15;;;;;;;3.17;1.63;;;0.40;100.00;;;;;;4941281;28;20664;-69
2023/11/28 10:14:45;;;;;;;5.03;2.35;;;0.40;100.00;;;;;;4933518;28;20056;-68
2023/11/28 10:17:12;;;;;;;12.32;2.70;;;0.40;100.00;;;;;;4935050;28;20121;-69
2023/11/28 10:19:42;;;;;;;8.60;1.95;;;0.40;100.00;;;;;;4941347;28;20039;-70
2023/11/28 10:22:09;;;;;;;5.72;2.65;;;0.30;100.00;;;;;;4936676;28;20118;-69
2023/11/28 10:24:37;;;;;;;3.78;1.90;;;0.40;100.00;;;;;;4933045;28;20170;-69
2023/11/28 10:27:04;;;;;;;8.25;2.95;;;0.30;100.00;;;;;;4937923;28;20500;-69
2023/11/28 10:29:32;;;;;;;7.75;2.40;;;0.40;100.00;;;;;;4938433;28;20508;-68
2023/11/28 10:32:00;;;;;;;7.63;2.47;;;0.30;100.00;;;;;;4935049;28;20139;-69
2023/11/28 10:34:28;;;;;;;11.00;3.78;;;0.30;100.00;;;;;;4938066;28;20064;-69
2023/11/28 10:37:00;;;;;;;11.77;3.85;;;0.20;100.00;;;;;;4971438;28;20052;-69
2023/11/28 10:39:27;;;;;;;4.70;2.90;;;0.30;100.00;;;;;;4936846;28;20787;-68
2023/11/28 10:41:55;;;;;;;2.60;2.08;;;0.30;100.00;;;;;;4932268;28;20118;-69
2023/11/28 10:44:24;;;;;;;9.23;2.30;;;0.30;100.00;;;;;;4939636;28;20059;-69
2023/11/28 10:46:57;;;;;;;11.20;2.28;;;0.40;100.00;;;;;;4940914;28;20055;-70
2023/11/28 10:49:24;;;;;;;6.05;1.92;;;0.50;100.00;;;;;;4951945;28;20059;-68
2023/11/28 10:51:55;;;;;;;6.95;2.83;;;0.50;100.00;;;;;;4932744;28;20165;-68
2023/11/28 10:54:25;;;;;;;6.13;2.17;;;0.50;100.00;;;;;;4938313;28;20062;-69
2023/11/28 10:56:55;;;;;;;8.48;1.98;;;0.50;100.00;;;;;;4964951;28;20062;-68
2023/11/28 10:59:34;;;;;;;4.25;2.15;;;0.30;100.00;;;;;;4934718;28;20142;-69
2023/11/28 11:02:05;;;;;;;3.22;1.92;;;0.20;100.00;;;;;;4938629;28;20051;-69
2023/11/28 11:04:32;;;;;;;6.75;2.50;;;0.20;100.00;;;;;;4970694;28;20091;-68
2023/11/28 11:07:00;;;;;;;9.20;2.80;;;0.10;100.00;;;;;;4967636;28;20066;-68
2023/11/28 11:09:27;;;;;;;6.90;2.90;;;0.10;100.00;;;;;;4948698;28;20059;-68
2023/11/28 11:11:56;;;;;;;6.13;1.80;;;0.00;100.00;;;;;;4940242;28;20459;-68
2023/11/28 11:14:35;;;;;;;5.78;1.73;;;0.00;100.00;;;;;;4939401;28;20047;-68
2023/11/28 11:17:31;;;;;;;3.10;1.70;;;0.00;100.00;;;;;;4934494;28;20087;-67
2023/11/28 11:20:00;;;;;;;9.97;2.70;;;0.00;100.00;;;;;;4963805;28;20056;-68
2023/11/28 11:22:32;;;;;;;5.63;2.50;;;0.00;100.00;;;;;;4948485;28;20162;-70
2023/11/28 11:25:00;;;;;;;15.98;5.30;;;0.00;100.00;;;;;;4962375;28;20119;-69
2023/11/28 11:27:28;;;;;;;12.07;3.95;;;0.00;100.00;;;;;;4933277;28;20161;-67
2023/11/28 11:29:55;;;;;;;10.77;4.32;;;-0.10;100.00;;;;;;4965639;28;20130;-67
2023/11/28 11:32:23;;;;;;;7.50;3.25;;;-0.10;100.00;;;;;;4961121;28;20047;-67
2023/11/28 11:34:52;;;;;;;22.83;4.80;;;-0.10;100.00;;;;;;4964736;28;20130;-70
2023/11/28 11:37:31;;;;;;;11.20;4.90;;;-0.30;100.00;;;;;;4939247;28;20051;-68
2023/11/28 11:40:00;;;;;;;16.60;6.57;;;-0.20;100.00;;;;;;4934923;28;20743;-75
2023/11/28 11:42:35;;;;;;;15.38;5.13;;;-0.20;100.00;;;;;;4934910;28;20055;-75
2023/11/28 11:45:06;;;;;;;16.35;4.78;;;-0.20;100.00;;;;;;4941885;28;20078;-75
2023/11/28 11:47:36;;;;;;;25.25;8.70;;;-0.10;100.00;;;;;;4972573;28;20177;-75
2023/11/28 11:50:05;;;;;;;13.43;4.43;;;0.00;100.00;;;;;;4938170;28;20055;-75
2023/11/28 11:52:33;;;;;;;34.30;8.63;;;0.00;100.00;;;;;;4932883;28;20142;-75
2023/11/28 11:55:08;;;;;;;13.05;3.65;;;0.10;100.00;;;;;;4935496;28;20054;-75
2023/11/28 11:57:37;;;;;;;28.75;9.63;;;0.20;100.00;;;;;;4938000;28;20398;-75
2023/11/28 12:00:13;;;;;;;15.75;5.47;;;0.20;100.00;;;;;;4934448;28;20056;-75
2023/11/28 12:02:42;;;;;;;5.97;3.05;;;0.30;100.00;;;;;;4933553;28;20040;-77
2023/11/28 12:05:13;;;;;;;12.65;4.22;;;0.40;100.00;;;;;;4943864;28;20138;-75
2023/11/28 12:07:42;;;;;;;22.48;4.82;;;0.50;100.00;;;;;;4935027;28;20050;-75
2023/11/28 12:10:11;;;;;;;19.70;5.00;;;0.50;100.00;;;;;;4935175;28;20046;-75
2023/11/28 12:12:40;;;;;;;31.25;9.60;;;0.60;100.00;;;;;;4938367;28;20059;-76
2023/11/28 12:15:10;;;;;;;30.38;9.43;;;0.60;100.00;;;;;;4967706;28;20058;-76
2023/11/28 12:17:39;;;;;;;21.25;4.78;;;0.60;100.00;;;;;;4937989;28;20043;-75
2023/11/28 12:20:08;;;;;;;17.00;4.28;;;0.70;100.00;;;;;;4971553;28;20154;-76
2023/11/28 12:22:35;;;;;;;18.63;5.47;;;0.40;100.00;;;;;;4935692;28;20055;-76
2023/11/28 12:25:02;;;;;;;27.30;5.63;;;0.40;100.00;;;;;;4934035;28;20141;-76
2023/11/28 12:27:29;;;;;;;18.17;5.90;;;0.30;100.00;;;;;;4940388;28;20070;-75
2023/11/28 12:29:57;;;;;;;22.88;5.82;;;0.20;100.00;;;;;;4937846;28;20049;-76
2023/11/28 12:32:26;;;;;;;17.75;4.95;;;0.20;100.00;;;;;;4936772;28;20055;-76
2023/11/28 12:34:57;;;;;;;7.97;3.10;;;0.30;100.00;;;;;;4964522;28;20111;-75
2023/11/28 12:37:24;;;;;;;18.25;5.85;;;0.10;100.00;;;;;;4969513;28;20090;-75
2023/11/28 12:39:54;;;;;;;30.83;9.68;;;0.20;100.00;;;;;;4939802;28;20055;-75